Time;durP1;ratioP1;P1;durP2;ratioP2;P2;SDS_P1;SDS_P2;PMS_P1;PMS_P2;Temp;Humidity;BMP_temperature;BMP_pressure;BME280_temperature;BME280_humidity;BME280_pressure;Samples;Min_cycle;Max_cycle;Signal;HPM_P1;HPM_P2
2023/09/01 00:00:15;;;;;;;3.20;2.33;;;;;;;15.92;100.00;155451.13;5071606;28;20442;-76
2023/09/01 00:02:50;;;;;;;5.13;2.70;;;;;;;15.97;100.00;155464.13;5053858;28;20442;-75
2023/09/01 00:05:17;;;;;;;3.13;2.27;;;;;;;15.98;100.00;155465.44;5060962;28;20458;-76
2023/09/01 00:07:43;;;;;;;6.83;2.60;;;;;;;15.97;100.00;155462.81;5031268;28;20445;-76
2023/09/01 00:10:11;;;;;;;3.23;2.13;;;;;;;15.93;100.00;155452.44;5018277;28;20466;-75
2023/09/01 00:12:38;;;;;;;2.50;2.30;;;;;;;15.94;100.00;155455.06;5050734;28;20447;-76
2023/09/01 00:15:05;;;;;;;2.67;2.43;;;;;;;15.95;100.00;155458.94;5051814;28;20558;-76
2023/09/01 00:17:32;;;;;;;3.70;2.40;;;;;;;15.93;100.00;155453.75;5045466;28;20455;-76
2023/09/01 00:19:59;;;;;;;3.63;2.70;;;;;;;15.94;100.00;155455.06;5040484;28;20455;-76
2023/09/01 00:22:25;;;;;;;3.17;2.30;;;;;;;15.95;100.00;155457.63;5051402;28;20473;-76
2023/09/01 00:24:52;;;;;;;2.70;2.03;;;;;;;15.91;100.00;155447.25;5053471;28;20920;-76
2023/09/01 00:27:20;;;;;;;2.73;2.20;;;;;;;15.91;100.00;155447.25;5036410;28;20810;-76
2023/09/01 00:29:47;;;;;;;3.60;2.50;;;;;;;15.91;100.00;155447.25;5027299;28;20900;-75
2023/09/01 00:32:13;;;;;;;2.50;2.20;;;;;;;15.96;100.00;155460.25;5027257;28;20455;-75
2023/09/01 00:34:40;;;;;;;3.00;2.00;;;;;;;15.93;100.00;155452.44;5055691;28;20489;-76
2023/09/01 00:37:06;;;;;;;3.53;2.30;;;;;;;15.93;100.00;155452.44;5046231;28;20451;-76
2023/09/01 00:39:33;;;;;;;2.70;2.40;;;;;;;15.94;100.00;155456.31;5042107;28;20487;-76
2023/09/01 00:42:00;;;;;;;3.33;2.63;;;;;;;15.91;100.00;155448.56;5044331;28;20491;-75
2023/09/01 00:44:28;;;;;;;3.20;2.60;;;;;;;15.92;100.00;155449.81;5022207;28;20455;-75
2023/09/01 00:46:54;;;;;;;4.00;2.40;;;;;;;15.89;100.00;155442.00;5052377;28;20803;-75
2023/09/01 00:49:21;;;;;;;3.50;2.97;;;;;;;15.91;100.00;155447.25;5026753;28;20463;-76
2023/09/01 00:51:48;;;;;;;4.07;3.00;;;;;;;15.87;100.00;155438.13;5058069;28;20978;-76
2023/09/01 00:54:15;;;;;;;3.03;2.47;;;;;;;15.89;100.00;155442.00;5052077;28;20423;-76
2023/09/01 00:56:44;;;;;;;3.00;2.70;;;;;;;15.90;100.00;155444.63;5063858;28;20481;-76
2023/09/01 00:59:11;;;;;;;2.50;2.30;;;;;;;15.87;100.00;155438.13;5029546;28;20486;-75
2023/09/01 01:01:41;;;;;;;3.63;2.30;;;;;;;15.88;100.00;155439.44;5039989;28;20453;-76
2023/09/01 01:04:07;;;;;;;4.10;2.90;;;;;;;15.93;100.00;155452.44;5068743;28;20435;-75
2023/09/01 01:06:39;;;;;;;4.57;3.17;;;;;;;15.91;100.00;155447.25;5050613;28;20755;-76
2023/09/01 01:09:12;;;;;;;3.57;2.77;;;;;;;15.91;100.00;155447.25;5026613;28;21040;-76
2023/09/01 01:11:45;;;;;;;3.50;2.57;;;;;;;15.87;100.00;155436.81;5050038;28;20427;-75
2023/09/01 01:14:15;;;;;;;3.17;2.43;;;;;;;15.93;100.00;155453.75;5041538;28;20458;-76
2023/09/01 01:16:43;;;;;;;5.10;2.87;;;;;;;15.94;100.00;155455.06;5052042;28;20442;-75
2023/09/01 01:19:19;;;;;;;3.20;2.50;;;;;;;15.94;100.00;155455.06;5032447;28;20594;-75
2023/09/01 01:21:48;;;;;;;4.40;2.87;;;;;;;15.90;100.00;155445.94;5063276;28;20446;-76
2023/09/01 01:24:16;;;;;;;4.03;2.50;;;;;;;15.91;100.00;155448.56;5053225;28;20451;-76
2023/09/01 01:26:43;;;;;;;2.90;2.43;;;;;;;15.90;100.00;155445.94;5043167;28;21188;-76
2023/09/01 01:29:10;;;;;;;5.37;2.80;;;;;;;15.91;100.00;155447.25;5026644;28;20797;-76
2023/09/01 01:31:36;;;;;;;2.57;2.10;;;;;;;15.90;100.00;155444.63;5062449;28;20542;-75
2023/09/01 01:34:09;;;;;;;2.57;2.37;;;;;;;15.86;100.00;155434.25;5062923;28;20484;-76
2023/09/01 01:36:38;;;;;;;4.10;2.57;;;;;;;15.82;100.00;155426.44;5038457;28;20495;-76
2023/09/01 01:39:07;;;;;;;3.10;2.73;;;;;;;15.79;100.00;155418.63;5033915;28;21011;-75
2023/09/01 01:41:39;;;;;;;2.97;2.67;;;;;;;15.75;100.00;155408.22;5040600;28;21048;-76
2023/09/01 01:44:07;;;;;;;2.97;2.67;;;;;;;15.75;100.00;155408.22;5025399;28;20439;-76
2023/09/01 01:46:34;;;;;;;3.90;2.57;;;;;;;15.74;100.00;155405.66;5062714;28;20522;-76
2023/09/01 01:49:01;;;;;;;4.30;2.70;;;;;;;15.72;100.00;155400.47;5031541;28;20584;-76
2023/09/01 01:51:27;;;;;;;4.10;3.07;;;;;;;15.75;100.00;155408.22;5042314;28;20428;-75
2023/09/01 01:53:54;;;;;;;3.40;2.40;;;;;;;15.71;100.00;155397.84;5046892;28;20466;-76
2023/09/01 01:56:20;;;;;;;3.77;2.60;;;;;;;15.71;100.00;155397.84;5064495;28;20463;-75
2023/09/01 01:58:48;;;;;;;3.87;2.83;;;;;;;15.73;100.00;155403.03;5015003;28;20462;-76
2023/09/01 02:01:15;;;;;;;5.63;2.33;;;;;;;15.72;100.00;155400.47;5047293;28;20541;-75
2023/09/01 02:03:41;;;;;;;3.00;2.63;;;;;;;15.72;100.00;155399.16;5023548;28;20475;-75
2023/09/01 02:06:08;;;;;;;3.57;2.97;;;;;;;15.76;100.00;155410.84;5042206;28;20464;-75
2023/09/01 02:08:34;;;;;;;3.30;3.00;;;;;;;15.72;100.00;155399.16;5027430;28;20821;-75
2023/09/01 02:11:01;;;;;;;2.77;2.57;;;;;;;15.77;100.00;155413.47;5065838;28;20446;-76
2023/09/01 02:13:28;;;;;;;3.10;2.40;;;;;;;15.77;100.00;155413.47;5040511;28;20461;-75
2023/09/01 02:15:56;;;;;;;2.40;2.00;;;;;;;15.74;100.00;155405.66;5045582;28;20942;-75
2023/09/01 02:18:23;;;;;;;2.50;2.23;;;;;;;15.76;100.00;155409.53;5037876;28;20532;-75
2023/09/01 02:20:50;;;;;;;3.30;2.33;;;;;;;15.78;100.00;155416.03;5043384;28;20471;-75
2023/09/01 02:23:17;;;;;;;2.40;2.20;;;;;;;15.82;100.00;155426.44;5038790;28;20462;-75
2023/09/01 02:25:44;;;;;;;3.53;2.77;;;;;;;15.79;100.00;155418.63;5022872;28;20878;-75
2023/09/01 02:28:10;;;;;;;3.13;2.50;;;;;;;15.81;100.00;155423.81;5040194;28;20446;-75
2023/09/01 02:30:38;;;;;;;3.47;2.30;;;;;;;15.81;100.00;155422.53;5009310;28;20487;-75
2023/09/01 02:33:06;;;;;;;3.43;2.60;;;;;;;15.81;100.00;155423.81;5051434;28;20486;-76
2023/09/01 02:35:33;;;;;;;3.20;2.10;;;;;;;15.80;100.00;155421.25;5038079;28;20450;-75
2023/09/01 02:37:59;;;;;;;2.53;2.33;;;;;;;15.79;100.00;155418.63;5016813;28;20439;-75
2023/09/01 02:40:26;;;;;;;2.50;2.30;;;;;;;15.75;100.00;155408.22;5060832;28;20474;-75
2023/09/01 02:42:53;;;;;;;4.17;2.40;;;;;;;15.77;100.00;155412.13;5047070;28;20438;-74
2023/09/01 02:45:20;;;;;;;2.77;2.47;;;;;;;15.76;100.00;155410.84;5065621;28;20553;-75
2023/09/01 02:47:46;;;;;;;3.40;2.40;;;;;;;15.80;100.00;155421.25;5083411;28;20507;-75
2023/09/01 02:50:14;;;;;;;3.10;2.10;;;;;;;15.78;100.00;155416.03;5062437;28;20455;-75
2023/09/01 02:52:41;;;;;;;3.63;2.60;;;;;;;15.78;100.00;155416.03;5043817;28;20485;-75
2023/09/01 02:55:08;;;;;;;2.47;1.90;;;;;;;15.78;100.00;155414.72;5039885;28;20437;-75
2023/09/01 02:57:35;;;;;;;3.50;2.40;;;;;;;15.78;100.00;155414.72;5029867;28;20484;-75
2023/09/01 03:00:14;;;;;;;3.00;2.57;;;;;;;15.79;100.00;155418.63;5006909;28;20884;-75
2023/09/01 03:02:42;;;;;;;3.00;2.10;;;;;;;15.79;100.00;155417.34;5051480;28;20467;-74
2023/09/01 03:05:10;;;;;;;3.03;2.20;;;;;;;15.79;100.00;155417.34;5029017;28;20557;-75
2023/09/01 03:07:39;;;;;;;3.50;2.70;;;;;;;15.76;100.00;155410.84;5055742;28;20455;-75
2023/09/01 03:10:07;;;;;;;3.37;2.00;;;;;;;15.75;100.00;155408.22;5001699;28;20495;-75
2023/09/01 03:12:35;;;;;;;4.30;2.40;;;;;;;15.75;100.00;155408.22;5018878;28;20433;-75
2023/09/01 03:15:02;;;;;;;3.10;2.13;;;;;;;15.75;100.00;155408.22;5051075;28;21015;-75
2023/09/01 03:17:29;;;;;;;3.30;2.10;;;;;;;15.77;100.00;155413.47;5024867;28;20451;-75
2023/09/01 03:19:56;;;;;;;2.87;1.97;;;;;;;15.74;100.00;155405.66;5060745;28;20482;-74
2023/09/01 03:22:23;;;;;;;2.50;1.90;;;;;;;15.75;100.00;155406.97;5020140;28;20439;-77
2023/09/01 03:24:52;;;;;;;2.00;1.80;;;;;;;15.78;100.00;155414.72;5042074;28;20659;-75
2023/09/01 03:27:19;;;;;;;3.30;2.30;;;;;;;15.78;100.00;155414.72;5045431;28;20459;-75
2023/09/01 03:29:45;;;;;;;4.20;2.00;;;;;;;15.78;100.00;155416.03;5055778;28;21234;-76
2023/09/01 03:32:12;;;;;;;3.30;2.50;;;;;;;15.78;100.00;155416.03;5036352;28;20851;-75
2023/09/01 03:34:39;;;;;;;3.00;2.60;;;;;;;15.76;100.00;155409.53;5063305;28;20547;-75
2023/09/01 03:37:11;;;;;;;3.37;2.87;;;;;;;15.77;100.00;155413.47;5046317;28;20533;-75
2023/09/01 03:39:41;;;;;;;2.73;2.07;;;;;;;15.78;100.00;155416.03;5058175;28;20477;-75
2023/09/01 03:42:09;;;;;;;3.10;2.20;;;;;;;15.78;100.00;155414.72;5028730;28;20451;-75
2023/09/01 03:44:36;;;;;;;4.60;2.50;;;;;;;15.78;100.00;155416.03;5014195;28;20490;-76
2023/09/01 03:47:03;;;;;;;4.37;1.80;;;;;;;15.80;100.00;155421.25;5051025;28;20484;-74
2023/09/01 03:49:30;;;;;;;3.53;2.67;;;;;;;15.80;100.00;155421.25;5025769;28;20458;-76
2023/09/01 03:51:57;;;;;;;2.13;1.93;;;;;;;15.84;100.00;155431.63;5020121;28;20480;-75
2023/09/01 03:54:23;;;;;;;1.90;1.70;;;;;;;15.86;100.00;155434.25;5010019;28;20457;-76
2023/09/01 03:57:04;;;;;;;2.33;1.93;;;;;;;15.87;100.00;155436.81;5008834;28;20476;-76
2023/09/01 03:59:32;;;;;;;2.67;2.00;;;;;;;15.86;100.00;155434.25;5002434;28;20485;-75
2023/09/01 04:01:59;;;;;;;3.70;2.30;;;;;;;15.84;100.00;155431.63;5003942;28;20456;-75
2023/09/01 04:04:27;;;;;;;2.73;2.23;;;;;;;15.83;100.00;155429.03;5010893;28;20456;-75
2023/09/01 04:06:54;;;;;;;5.07;2.37;;;;;;;15.85;100.00;155432.94;5010438;28;20858;-74
2023/09/01 04:09:21;;;;;;;3.80;2.00;;;;;;;15.81;100.00;155423.81;5009356;28;20456;-75
2023/09/01 04:11:47;;;;;;;3.43;2.70;;;;;;;15.82;100.00;155426.44;5007482;28;20485;-75
2023/09/01 04:14:14;;;;;;;3.20;2.40;;;;;;;15.80;100.00;155421.25;4990382;28;20978;-75
2023/09/01 04:16:42;;;;;;;4.57;1.93;;;;;;;15.79;100.00;155418.63;5007321;28;20484;-75
2023/09/01 04:19:09;;;;;;;2.60;2.13;;;;;;;15.79;100.00;155418.63;5009529;28;20487;-74
2023/09/01 04:21:36;;;;;;;2.03;1.70;;;;;;;15.76;100.00;155410.84;4991764;28;20447;-75
2023/09/01 04:24:02;;;;;;;3.03;2.20;;;;;;;15.77;100.00;155413.47;5009769;28;20440;-75
2023/09/01 04:26:29;;;;;;;1.90;1.70;;;;;;;15.74;100.00;155404.34;5005131;28;20479;-75
2023/09/01 04:28:56;;;;;;;2.43;2.07;;;;;;;15.71;100.00;155396.53;5006724;28;20472;-75
2023/09/01 04:31:27;;;;;;;3.10;1.80;;;;;;;15.70;100.00;155395.22;5007747;28;20461;-75
2023/09/01 04:33:56;;;;;;;2.90;2.50;;;;;;;15.67;100.00;155387.41;4989167;28;20458;-75
2023/09/01 04:36:23;;;;;;;3.47;2.10;;;;;;;15.66;100.00;155384.84;4991526;28;20543;-76
2023/09/01 04:38:50;;;;;;;4.33;2.60;;;;;;;15.66;100.00;155383.53;5002641;28;20460;-75
2023/09/01 04:41:17;;;;;;;2.90;2.07;;;;;;;15.64;100.00;155379.66;4993326;28;20487;-74
2023/09/01 04:43:44;;;;;;;3.13;2.30;;;;;;;15.65;100.00;155382.22;5011779;28;20460;-75
2023/09/01 04:46:13;;;;;;;2.50;1.83;;;;;;;15.67;100.00;155387.41;5009321;28;20453;-75
2023/09/01 04:48:41;;;;;;;4.43;2.07;;;;;;;15.68;100.00;155390.03;5005171;28;20939;-76
2023/09/01 04:51:09;;;;;;;6.23;2.17;;;;;;;15.70;100.00;155395.22;5006965;28;20464;-76
2023/09/01 04:53:37;;;;;;;2.87;2.10;;;;;;;15.73;100.00;155403.03;4992402;28;20860;-76
2023/09/01 04:56:04;;;;;;;4.13;1.80;;;;;;;15.72;100.00;155400.47;5005204;28;20488;-76
2023/09/01 04:58:31;;;;;;;2.83;2.17;;;;;;;15.74;100.00;155405.66;5007806;28;20861;-75
2023/09/01 05:00:57;;;;;;;3.17;2.07;;;;;;;15.76;100.00;155409.53;5007934;28;20479;-76
2023/09/01 05:03:24;;;;;;;2.43;2.23;;;;;;;15.78;100.00;155416.03;5009469;28;20853;-76
2023/09/01 05:05:51;;;;;;;2.50;2.27;;;;;;;15.75;100.00;155408.22;5007942;28;20931;-76
2023/09/01 05:08:19;;;;;;;3.20;2.17;;;;;;;15.73;100.00;155403.03;5001072;28;20464;-75
2023/09/01 05:10:45;;;;;;;3.50;2.37;;;;;;;15.76;100.00;155410.84;5013506;28;20458;-75
2023/09/01 05:13:12;;;;;;;3.50;2.27;;;;;;;15.78;100.00;155416.03;5015786;28;20460;-75
2023/09/01 05:15:39;;;;;;;2.20;1.90;;;;;;;15.81;100.00;155423.81;5012772;28;20472;-75
2023/09/01 05:18:06;;;;;;;2.90;2.03;;;;;;;15.84;100.00;155431.63;4996344;28;20468;-74
2023/09/01 05:20:32;;;;;;;3.87;1.90;;;;;;;15.86;100.00;155435.50;4996344;28;20571;-75
2023/09/01 05:22:59;;;;;;;2.40;1.70;;;;;;;15.87;100.00;155436.81;4997891;28;20503;-75
2023/09/01 05:25:29;;;;;;;2.20;2.00;;;;;;;15.87;100.00;155436.81;5012138;28;20465;-75
2023/09/01 05:27:56;;;;;;;4.20;1.70;;;;;;;15.88;100.00;155439.44;4983782;28;20464;-75
2023/09/01 05:30:22;;;;;;;4.50;2.10;;;;;;;15.87;100.00;155436.81;5013663;28;20452;-75
2023/09/01 05:32:49;;;;;;;2.40;2.00;;;;;;;15.87;100.00;155438.13;5008144;28;20467;-75
2023/09/01 05:35:16;;;;;;;2.00;1.80;;;;;;;15.87;100.00;155438.13;5015222;28;20460;-74
2023/09/01 05:37:42;;;;;;;2.47;1.80;;;;;;;15.88;100.00;155440.75;5012755;28;20996;-75
2023/09/01 05:40:10;;;;;;;2.63;2.03;;;;;;;15.91;100.00;155447.25;5013256;28;20480;-75
2023/09/01 05:42:39;;;;;;;3.20;2.03;;;;;;;15.93;100.00;155452.44;4982116;28;20453;-75
2023/09/01 05:45:07;;;;;;;2.20;1.67;;;;;;;15.94;100.00;155455.06;5013150;28;21275;-76
2023/09/01 05:47:34;;;;;;;2.23;1.77;;;;;;;15.95;100.00;155457.63;4982146;28;20987;-75
2023/09/01 05:50:01;;;;;;;2.43;1.87;;;;;;;15.94;100.00;155455.06;4981633;28;20449;-75
2023/09/01 05:52:27;;;;;;;2.93;2.03;;;;;;;15.93;100.00;155452.44;5009057;28;21949;-75
2023/09/01 05:54:54;;;;;;;2.00;1.70;;;;;;;15.93;100.00;155452.44;5013998;28;20529;-75
2023/09/01 05:57:21;;;;;;;3.10;1.90;;;;;;;15.92;100.00;155449.81;5014254;28;20534;-75
2023/09/01 05:59:49;;;;;;;3.13;2.33;;;;;;;15.91;100.00;155447.25;5009674;28;20495;-74
2023/09/01 06:02:15;;;;;;;2.00;1.77;;;;;;;15.91;100.00;155448.56;5012289;28;21263;-75
2023/09/01 06:04:42;;;;;;;2.70;2.23;;;;;;;15.91;100.00;155447.25;5013385;28;20460;-75
2023/09/01 06:07:09;;;;;;;4.40;2.00;;;;;;;15.92;100.00;155449.81;5007085;28;20536;-75
2023/09/01 06:09:47;;;;;;;2.40;1.80;;;;;;;15.96;100.00;155460.25;5013845;28;20479;-75
2023/09/01 06:12:14;;;;;;;4.30;1.97;;;;;;;15.97;100.00;155462.81;5011361;28;20934;-75
2023/09/01 06:14:41;;;;;;;2.30;1.80;;;;;;;15.99;100.00;155468.06;5011701;28;20457;-75
2023/09/01 06:17:09;;;;;;;2.83;1.73;;;;;;;16.00;100.00;155470.63;5013808;28;20452;-74
2023/09/01 06:19:35;;;;;;;3.40;2.10;;;;;;;15.98;100.00;155465.44;5009397;28;20467;-74
2023/09/01 06:22:02;;;;;;;3.60;2.23;;;;;;;15.98;100.00;155466.75;5013090;28;20834;-75
2023/09/01 06:24:28;;;;;;;2.80;2.00;;;;;;;16.00;100.00;155471.94;5012317;28;20463;-75
2023/09/01 06:26:55;;;;;;;2.40;1.47;;;;;;;15.98;100.00;155465.44;5012897;28;20453;-75
2023/09/01 06:29:21;;;;;;;2.50;1.67;;;;;;;15.96;100.00;155460.25;5008273;28;22135;-75
2023/09/01 06:31:48;;;;;;;2.20;1.80;;;;;;;15.95;100.00;155458.94;5011015;28;20464;-75
2023/09/01 06:34:15;;;;;;;2.47;1.70;;;;;;;15.95;100.00;155458.94;5012193;28;20452;-75
2023/09/01 06:36:42;;;;;;;4.80;2.20;;;;;;;15.96;100.00;155460.25;5026134;28;20499;-75
2023/09/01 06:39:09;;;;;;;2.40;1.60;;;;;;;15.94;100.00;155456.31;5009787;28;20449;-75
2023/09/01 06:41:36;;;;;;;3.03;1.90;;;;;;;15.95;100.00;155458.94;5014632;28;20508;-76
2023/09/01 06:44:02;;;;;;;1.97;1.77;;;;;;;15.94;100.00;155455.06;5012002;28;20460;-76
2023/09/01 06:46:29;;;;;;;2.77;1.97;;;;;;;15.95;100.00;155458.94;5007179;28;20457;-75
2023/09/01 06:48:56;;;;;;;2.27;1.70;;;;;;;15.97;100.00;155462.81;5024999;28;20461;-75
2023/09/01 06:51:23;;;;;;;2.60;1.50;;;;;;;15.97;100.00;155462.81;5013243;28;20445;-75
2023/09/01 06:53:50;;;;;;;2.00;1.70;;;;;;;16.00;100.00;155470.63;5050035;28;20954;-75
2023/09/01 06:56:16;;;;;;;2.00;1.60;;;;;;;16.04;100.00;155481.06;5035219;28;20462;-75
2023/09/01 06:58:43;;;;;;;2.17;1.30;;;;;;;16.08;100.00;155492.75;5053059;28;20816;-75
2023/09/01 07:01:11;;;;;;;2.10;1.80;;;;;;;16.10;100.00;155497.94;5052885;28;20473;-75
2023/09/01 07:03:37;;;;;;;1.60;1.30;;;;;;;16.14;100.00;155507.06;5050506;28;20486;-76
2023/09/01 07:06:04;;;;;;;2.17;1.70;;;;;;;16.16;100.00;155512.25;5033635;28;20462;-74
2023/09/01 07:08:32;;;;;;;2.23;1.83;;;;;;;16.18;100.00;155517.44;5048431;28;20442;-75
2023/09/01 07:11:02;;;;;;;2.93;1.77;;;;;;;16.20;100.00;155522.66;5020951;28;20472;-74
2023/09/01 07:13:29;;;;;;;1.67;1.47;;;;;;;16.23;100.00;155530.47;5063652;28;20546;-74
2023/09/01 07:15:56;;;;;;;3.03;2.20;;;;;;;16.25;100.00;155535.66;5052086;28;20461;-74
2023/09/01 07:18:23;;;;;;;2.60;1.80;;;;;;;16.25;100.00;155535.66;5033991;28;20462;-75
2023/09/01 07:20:50;;;;;;;3.33;1.80;;;;;;;16.29;100.00;155547.34;5051108;28;20494;-74
2023/09/01 07:23:17;;;;;;;3.20;1.90;;;;;;;16.31;100.00;155551.25;5048631;28;20464;-75
2023/09/01 07:25:45;;;;;;;2.67;2.27;;;;;;;16.31;100.00;155551.25;5066709;28;20815;-74
2023/09/01 07:28:13;;;;;;;2.90;1.67;;;;;;;16.30;100.00;155548.66;5063157;28;20540;-74
2023/09/01 07:30:39;;;;;;;2.40;1.83;;;;;;;16.31;100.00;155551.25;5065354;28;20979;-75
2023/09/01 07:33:06;;;;;;;3.67;1.83;;;;;;;16.35;100.00;155561.66;5052505;28;20449;-74
2023/09/01 07:35:32;;;;;;;2.93;1.63;;;;;;;16.35;100.00;155561.66;5065558;28;20463;-75
2023/09/01 07:37:59;;;;;;;2.50;1.80;;;;;;;16.38;100.00;155570.78;5052616;28;20455;-74
2023/09/01 07:40:26;;;;;;;2.77;1.90;;;;;;;16.45;100.00;155588.97;5049744;28;20572;-75
2023/09/01 07:42:56;;;;;;;2.63;1.80;;;;;;;16.51;100.00;155603.28;5053738;28;20458;-75
2023/09/01 07:45:22;;;;;;;2.77;1.97;;;;;;;16.60;100.00;155626.72;5049666;28;20543;-74
2023/09/01 07:47:49;;;;;;;3.83;2.13;;;;;;;16.63;100.00;155634.53;5049875;28;20458;-74
2023/09/01 07:50:16;;;;;;;2.20;2.00;;;;;;;16.68;100.00;155646.28;5065680;28;20469;-74
2023/09/01 07:52:42;;;;;;;2.60;1.97;;;;;;;16.71;100.00;155655.34;5050684;28;20487;-75
2023/09/01 07:55:09;;;;;;;2.67;2.17;;;;;;;16.72;100.00;155657.97;5052152;28;20804;-74
2023/09/01 07:57:36;;;;;;;3.40;2.67;;;;;;;16.79;100.00;155674.88;5048927;28;20445;-75
2023/09/01 08:00:07;;;;;;;2.50;2.00;;;;;;;16.85;100.00;155691.81;5021697;28;20474;-75
2023/09/01 08:02:40;;;;;;;4.13;2.20;;;;;;;16.91;100.00;155706.13;5050999;28;20434;-76
2023/09/01 08:05:07;;;;;;;3.23;2.13;;;;;;;16.97;100.00;155721.75;5052451;28;20447;-76
2023/09/01 08:07:33;;;;;;;3.13;1.90;;;;;;;17.04;100.00;155741.25;5062405;28;20457;-76
2023/09/01 08:10:00;;;;;;;2.53;2.27;;;;;;;17.09;100.00;155752.94;5064515;28;20455;-75
2023/09/01 08:12:28;;;;;;;2.60;2.03;;;;;;;17.22;100.00;155785.47;5052155;28;20466;-76
2023/09/01 08:14:55;;;;;;;2.00;1.73;;;;;;;17.24;100.00;155791.97;5052701;28;20450;-76
2023/09/01 08:17:22;;;;;;;2.73;1.83;;;;;;;17.26;100.00;155797.16;5051709;28;20467;-76
2023/09/01 08:19:49;;;;;;;2.50;1.90;;;;;;;17.30;100.00;155807.63;5056693;28;20967;-76
2023/09/01 08:22:16;;;;;;;2.67;2.07;;;;;;;17.37;100.00;155824.50;5024032;28;20474;-76
2023/09/01 08:24:44;;;;;;;2.63;1.80;;;;;;;17.42;100.00;155838.81;5056699;28;20466;-76
2023/09/01 08:27:10;;;;;;;2.33;1.80;;;;;;;17.47;100.00;155850.56;5017859;28;20494;-76
2023/09/01 08:29:38;;;;;;;2.10;1.70;;;;;;;17.55;100.00;155872.72;5024110;28;20447;-76
2023/09/01 08:32:06;;;;;;;2.80;2.17;;;;;;;17.68;100.00;155903.97;5034128;28;20651;-75
2023/09/01 08:34:34;;;;;;;3.17;2.00;;;;;;;17.84;100.00;155946.97;5053128;28;20458;-76
2023/09/01 08:37:00;;;;;;;3.20;2.27;;;;;;;18.04;100.00;155997.72;5067853;28;20450;-76
2023/09/01 08:39:27;;;;;;;2.10;1.90;;;;;;;18.23;100.00;156048.53;5055774;28;20462;-76
2023/09/01 08:41:54;;;;;;;2.03;1.60;;;;;;;18.33;100.00;156071.94;5056878;28;20481;-76
2023/09/01 08:44:23;;;;;;;2.30;1.80;;;;;;;18.40;100.00;156090.22;5051682;28;20489;-76
2023/09/01 08:46:51;;;;;;;2.80;2.20;;;;;;;18.50;100.00;156116.31;5065115;28;20532;-76
2023/09/01 08:49:19;;;;;;;3.73;1.40;;;;;;;18.55;100.00;156129.31;5024643;28;20482;-76
2023/09/01 08:51:47;;;;;;;3.30;1.77;;;;;;;18.54;100.00;156126.69;5025295;28;20449;-76
2023/09/01 08:54:18;;;;;;;1.90;1.33;;;;;;;18.57;100.00;156134.53;5066218;28;20863;-76
2023/09/01 08:56:45;;;;;;;1.73;1.30;;;;;;;18.66;100.00;156158.00;5068300;28;20455;-76
2023/09/01 08:59:12;;;;;;;2.10;1.43;;;;;;;18.66;100.00;156158.00;5067341;28;20541;-76
2023/09/01 09:01:39;;;;;;;1.87;1.27;;;;;;;18.67;100.00;156160.56;5022749;28;20503;-76
2023/09/01 09:04:06;;;;;;;1.40;1.00;;;;;;;18.67;100.00;156161.88;5066677;28;20462;-76
2023/09/01 09:06:33;;;;;;;1.50;1.17;;;;;;;18.70;100.00;156168.38;5041038;28;20516;-76
2023/09/01 09:09:11;;;;;;;1.43;0.90;;;;;;;18.73;100.00;156176.22;5069308;28;20455;-76
2023/09/01 09:11:39;;;;;;;1.80;1.20;;;;;;;18.78;100.00;156189.22;5050258;28;20542;-76
2023/09/01 09:14:06;;;;;;;2.23;1.53;;;;;;;18.83;100.00;156202.25;5018079;28;20537;-76
2023/09/01 09:16:33;;;;;;;1.90;1.30;;;;;;;18.97;100.00;156237.44;5050505;28;20455;-76
2023/09/01 09:19:07;;;;;;;1.90;1.47;;;;;;;19.12;100.00;156277.84;5055390;28;20494;-76
2023/09/01 09:21:34;;;;;;;2.20;1.70;;;;;;;19.23;100.00;156306.53;5052734;28;20469;-76
2023/09/01 09:24:02;;;;;;;2.00;1.50;;;;;;;19.32;100.00;156330.00;5018669;28;20458;-76
2023/09/01 09:26:31;;;;;;;2.87;1.87;;;;;;;19.42;100.00;156356.09;5055327;28;20450;-76
2023/09/01 09:29:05;;;;;;;3.50;1.63;;;;;;;19.47;100.00;156366.50;5065434;28;20438;-76
2023/09/01 09:31:33;;;;;;;2.83;1.93;;;;;;;19.57;100.00;156393.88;5066747;28;20784;-76
2023/09/01 09:34:12;;;;;;;3.47;1.90;;;;;;;19.69;100.00;156423.88;5066782;28;20447;-76
2023/09/01 09:36:39;;;;;;;2.80;1.83;;;;;;;19.74;100.00;156436.91;5050536;28;20483;-76
2023/09/01 09:39:06;;;;;;;2.80;1.70;;;;;;;19.72;100.00;156431.72;5050442;28;20465;-76
2023/09/01 09:41:46;;;;;;;2.50;1.67;;;;;;;19.73;100.00;156435.59;5069595;28;20485;-75
2023/09/01 09:44:13;;;;;;;2.23;1.30;;;;;;;19.76;100.00;156442.13;5067180;28;20460;-75
2023/09/01 09:46:41;;;;;;;2.07;1.50;;;;;;;19.85;100.00;156465.63;5057746;28;20446;-76
2023/09/01 09:49:08;;;;;;;2.33;1.50;;;;;;;19.87;100.00;156470.81;5065520;28;20478;-75
2023/09/01 09:51:35;;;;;;;2.37;1.33;;;;;;;19.94;100.00;156489.06;5035954;28;20819;-76
2023/09/01 09:54:03;;;;;;;1.70;1.20;;;;;;;19.94;100.00;156489.06;5052223;28;20573;-76
2023/09/01 09:56:32;;;;;;;1.73;1.43;;;;;;;19.96;100.00;156494.31;5047516;28;20495;-75
2023/09/01 09:59:03;;;;;;;1.60;1.23;;;;;;;19.93;100.00;156486.47;5053120;28;20450;-76
2023/09/01 10:01:31;;;;;;;6.10;1.37;;;;;;;19.93;100.00;156486.47;5050745;28;20500;-76
2023/09/01 10:03:58;;;;;;;1.73;1.40;;;;;;;19.88;100.00;156473.44;5067556;28;20494;-76
2023/09/01 10:06:25;;;;;;;1.90;1.10;;;;;;;19.84;100.00;156463.00;5033705;28;20478;-77
2023/09/01 10:08:52;;;;;;;1.60;1.20;;;;;;;19.81;100.00;156455.16;5053492;28;20450;-76
2023/09/01 10:11:19;;;;;;;1.90;1.53;;;;;;;19.82;100.00;156459.09;5069378;28;20454;-76
2023/09/01 10:13:45;;;;;;;2.10;1.53;;;;;;;19.78;100.00;156447.31;5066829;28;20457;-76
2023/09/01 10:16:14;;;;;;;2.00;1.50;;;;;;;19.75;100.00;156439.56;5051886;28;20879;-76
2023/09/01 10:18:43;;;;;;;1.67;1.40;;;;;;;19.73;100.00;156434.28;5053263;28;20452;-76
2023/09/01 10:21:10;;;;;;;1.70;1.40;;;;;;;19.78;100.00;156447.31;5023303;28;20475;-76
2023/09/01 10:23:38;;;;;;;2.40;1.33;;;;;;;19.77;100.00;156444.75;5037035;28;20482;-76
2023/09/01 10:26:16;;;;;;;3.43;1.37;;;;;;;19.79;100.00;156449.94;5051306;28;20484;-75
2023/09/01 10:28:57;;;;;;;3.10;1.93;;;;;;;19.78;100.00;156447.31;5068193;28;20810;-76
2023/09/01 10:31:25;;;;;;;3.00;1.80;;;;;;;19.76;100.00;156443.44;5032255;28;20446;-75
2023/09/01 10:34:05;;;;;;;2.97;2.13;;;;;;;19.78;100.00;156447.31;5050238;28;20553;-76
2023/09/01 10:36:32;;;;;;;2.60;1.77;;;;;;;19.73;100.00;156434.28;5053099;28;20811;-76
2023/09/01 10:39:05;;;;;;;2.40;1.73;;;;;;;19.71;100.00;156429.09;5052543;28;20445;-75
2023/09/01 10:41:45;;;;;;;2.57;1.83;;;;;;;19.79;100.00;156449.94;5064092;28;20513;-75
2023/09/01 10:44:12;;;;;;;2.90;1.77;;;;;;;19.78;100.00;156448.63;5052185;28;20819;-76
2023/09/01 10:46:40;;;;;;;3.80;1.47;;;;;;;19.81;100.00;156455.16;5065902;28;20791;-76
2023/09/01 10:49:09;;;;;;;2.80;1.33;;;;;;;19.82;100.00;156459.09;5049864;28;20442;-76
2023/09/01 10:51:37;;;;;;;2.10;1.50;;;;;;;19.91;100.00;156481.22;5051160;28;20743;-75
2023/09/01 10:54:44;;;;;;;2.27;1.50;;;;;;;19.91;100.00;156481.22;5052491;28;20451;-75
2023/09/01 10:57:14;;;;;;;2.77;1.87;;;;;;;19.95;100.00;156491.69;5051549;28;20960;-75
2023/09/01 10:59:41;;;;;;;2.43;1.77;;;;;;;20.02;100.00;156509.91;5052713;28;20454;-75
2023/09/01 11:02:22;;;;;;;2.37;1.87;;;;;;;20.08;100.00;156524.25;5049450;28;20477;-75
2023/09/01 11:04:50;;;;;;;4.63;1.90;;;;;;;20.10;100.00;156529.47;5065617;28;20450;-76
2023/09/01 11:07:16;;;;;;;2.73;1.83;;;;;;;20.12;100.00;156536.00;5052045;28;20828;-75
2023/09/01 11:09:56;;;;;;;2.83;1.83;;;;;;;20.27;100.00;156573.88;5050538;28;20445;-75
2023/09/01 11:12:31;;;;;;;1.80;1.60;;;;;;;20.33;100.00;156589.56;5019584;28;20447;-75
2023/09/01 11:14:59;;;;;;;2.90;1.50;;;;;;;20.37;100.00;156599.97;5021806;28;20453;-77
2023/09/01 11:17:43;;;;;;;2.03;1.73;;;;;;;20.43;100.00;156616.94;5065031;28;21138;-74
2023/09/01 11:20:11;;;;;;;2.20;1.50;;;;;;;20.41;100.00;156611.69;5016845;28;20488;-77